createdAt,value
2022-08-19T00:01:39.498Z,18.90
2022-08-19T00:04:41.343Z,18.92
2022-08-19T00:07:44.655Z,18.95
2022-08-19T00:10:46.936Z,18.95
2022-08-19T00:13:51.173Z,18.85
2022-08-19T00:16:55.582Z,18.82
2022-08-19T00:19:57.397Z,18.88
2022-08-19T00:22:59.106Z,18.82
2022-08-19T00:26:00.771Z,18.82
2022-08-19T00:29:02.874Z,18.84
2022-08-19T00:32:05.499Z,18.82
2022-08-19T00:35:07.869Z,18.76
2022-08-19T00:38:09.545Z,18.76
2022-08-19T00:41:15.551Z,18.80
2022-08-19T00:44:21.023Z,18.83
2022-08-19T00:47:24.668Z,18.67
2022-08-19T00:50:28.945Z,18.70
2022-08-19T00:53:32.750Z,18.76
2022-08-19T00:56:35.128Z,18.76
2022-08-19T01:00:00.356Z,18.72
2022-08-19T01:03:01.170Z,18.78
2022-08-19T01:06:03.411Z,18.80
2022-08-19T01:09:06.182Z,18.82
2022-08-19T01:12:08.638Z,18.79
2022-08-19T01:15:13.275Z,18.82
2022-08-19T01:18:17.821Z,18.84
2022-08-19T01:21:28.941Z,18.76
2022-08-19T01:24:31.745Z,18.77
2022-08-19T01:27:47.903Z,18.68
2022-08-19T01:30:51.306Z,18.63
2022-08-19T01:33:55.554Z,18.70
2022-08-19T01:36:57.304Z,18.70
2022-08-19T01:39:59.091Z,18.69
2022-08-19T01:43:01.393Z,18.64
2022-08-19T01:46:04.497Z,18.69
2022-08-19T01:49:07.480Z,18.66
2022-08-19T01:52:09.221Z,18.61
2022-08-19T01:55:15.836Z,18.60
2022-08-19T01:58:21.960Z,18.61
2022-08-19T02:01:23.590Z,18.57
2022-08-19T02:04:29.393Z,18.58
2022-08-19T02:07:31.119Z,18.53
2022-08-19T02:10:33.193Z,18.56
2022-08-19T02:13:35.781Z,18.54
2022-08-19T02:16:38.329Z,18.51
2022-08-19T02:19:41.091Z,18.49
2022-08-19T02:22:43.511Z,18.44
2022-08-19T02:25:48.876Z,18.39
2022-08-19T02:28:50.593Z,18.32
2022-08-19T02:31:52.633Z,18.33
2022-08-19T02:34:54.419Z,18.35
2022-08-19T02:38:14.588Z,18.43
2022-08-19T02:41:23.888Z,18.35
2022-08-19T05:29:46.723Z,18.27
2022-08-19T05:32:54.024Z,18.09
2022-08-19T05:36:06.126Z,18.25
2022-08-19T05:39:17.907Z,18.35
2022-08-19T05:42:21.346Z,18.21
2022-08-19T05:45:25.923Z,18.15
2022-08-19T05:48:28.244Z,18.20
2022-08-19T05:51:36.117Z,18.35
2022-08-19T05:54:43.828Z,18.20
2022-08-19T05:57:45.815Z,18.25
2022-08-19T06:00:47.944Z,18.40
2022-08-19T06:03:52.237Z,18.17
2022-08-19T06:07:01.378Z,18.09
2022-08-19T06:10:22.365Z,18.32
2022-08-19T06:13:37.167Z,18.42
2022-08-19T06:16:44.898Z,18.51
2022-08-19T06:20:05.244Z,18.42
2022-08-19T06:23:19.089Z,18.28
2022-08-19T06:27:09.166Z,18.12
2022-08-19T06:30:28.479Z,18.37
2022-08-19T06:33:39.971Z,18.37
2022-08-19T06:36:45.494Z,18.20
2022-08-19T06:39:50.875Z,18.42
2022-08-19T06:43:03.944Z,18.42
2022-08-19T06:46:17.482Z,18.55
2022-08-19T06:49:22.052Z,18.47
2022-08-19T06:52:36.549Z,18.58
2022-08-19T06:55:39.054Z,18.51
2022-08-19T06:58:42.791Z,18.52
2022-08-19T07:01:51.311Z,18.34
2022-08-19T07:04:55.149Z,18.50
2022-08-19T07:08:04.752Z,18.53
2022-08-19T07:11:11.244Z,18.60
2022-08-19T07:14:19.104Z,18.52
2022-08-19T07:17:25.111Z,18.60
2022-08-19T07:20:28.498Z,18.88
2022-08-19T07:23:30.696Z,18.87
2022-08-19T07:26:39.863Z,18.85
2022-08-19T07:29:44.278Z,18.87
2022-08-19T07:32:46.206Z,18.84
2022-08-19T07:35:49.821Z,18.98
2022-08-19T07:38:52.766Z,18.98
2022-08-19T07:41:56.473Z,19.15
2022-08-19T07:44:59.654Z,19.36
2022-08-19T07:48:02.176Z,19.55
2022-08-19T07:51:09.212Z,19.66
2022-08-19T07:54:18.622Z,19.71
2022-08-19T07:57:25.347Z,19.57
2022-08-19T08:00:32.078Z,19.82
2022-08-19T08:03:54.423Z,19.58
2022-08-19T08:07:14.769Z,19.73
2022-08-19T08:10:21.157Z,20.07
2022-08-19T08:13:24.476Z,19.96
2022-08-19T08:16:31.143Z,20.07
2022-08-19T08:19:34.160Z,20.12
2022-08-19T08:22:54.673Z,19.97
2022-08-19T08:25:59.261Z,20.19
2022-08-19T08:29:01.024Z,20.39
2022-08-19T08:32:03.022Z,20.27
2022-08-19T08:35:11.319Z,20.41
2022-08-19T08:38:13.362Z,20.43
2022-08-19T08:41:50.211Z,20.38
2022-08-19T08:45:14.668Z,20.45
2022-08-19T08:48:28.147Z,20.43
2022-08-19T08:51:35.951Z,20.39
2022-08-19T08:54:55.031Z,20.51
2022-08-19T08:58:46.174Z,20.61
2022-08-19T09:01:47.938Z,20.68
2022-08-19T09:04:49.896Z,20.71
2022-08-19T09:07:59.566Z,21.02
2022-08-19T09:11:07.593Z,21.22
2022-08-19T09:14:40.601Z,21.34
2022-08-19T09:17:40.573Z,21.36
2022-08-19T09:20:43.029Z,21.46
2022-08-19T09:23:44.796Z,21.55
2022-08-19T09:26:52.741Z,21.43
2022-08-19T09:29:55.404Z,21.51
2022-08-19T09:32:57.266Z,21.61
2022-08-19T09:36:10.773Z,21.53
2022-08-19T09:39:16.507Z,21.76
2022-08-19T09:42:29.851Z,22.12
2022-08-19T09:45:33.263Z,22.23
2022-08-19T09:48:35.019Z,21.99
2022-08-19T09:51:36.833Z,22.23
2022-08-19T09:54:39.948Z,22.36
2022-08-19T09:57:45.900Z,22.73
2022-08-19T10:00:51.011Z,22.91
2022-08-19T10:03:55.084Z,23.04
2022-08-19T10:06:57.149Z,23.03
2022-08-19T10:09:59.971Z,23.30
2022-08-19T10:13:01.687Z,23.29
2022-08-19T10:16:07.255Z,23.19
2022-08-19T10:19:09.578Z,23.28
2022-08-19T10:22:15.343Z,23.43
2022-08-19T10:25:17.633Z,23.40
2022-08-19T10:28:19.677Z,23.31
2022-08-19T10:32:02.147Z,23.51
2022-08-19T10:34:48.471Z,23.27
2022-08-19T10:37:57.287Z,23.05
2022-08-19T10:41:14.519Z,22.94
2022-08-19T10:44:18.001Z,22.92
2022-08-19T10:47:25.759Z,23.12
2022-08-19T10:50:46.616Z,22.82
2022-08-19T10:53:49.640Z,22.71
2022-08-19T10:56:53.881Z,22.94
2022-08-19T10:59:56.971Z,22.47
2022-08-19T11:02:58.602Z,22.44
2022-08-19T11:06:02.125Z,22.40
2022-08-19T11:09:04.300Z,22.35
2022-08-19T11:12:06.306Z,22.29
2022-08-19T11:15:12.082Z,22.33
2022-08-19T11:18:13.717Z,22.32
2022-08-19T11:21:18.400Z,22.52
2022-08-19T11:24:23.457Z,22.67
2022-08-19T11:27:25.162Z,22.90
2022-08-19T11:30:26.776Z,23.15
2022-08-19T11:33:28.451Z,23.13
2022-08-19T11:36:31.537Z,23.53
2022-08-19T11:39:35.373Z,23.88
2022-08-19T11:42:55.594Z,24.03
2022-08-19T11:45:58.493Z,23.84
2022-08-19T11:49:01.711Z,23.75
2022-08-19T11:52:03.755Z,23.69
2022-08-19T11:55:06.380Z,24.03
2022-08-19T11:58:08.750Z,23.76
2022-08-19T12:01:22.970Z,24.01
2022-08-19T12:04:24.652Z,24.08
2022-08-19T12:07:26.460Z,24.01
2022-08-19T12:10:28.109Z,23.99
2022-08-19T12:13:31.742Z,24.50
2022-08-19T12:16:34.353Z,24.50
2022-08-19T12:19:38.486Z,24.92
2022-08-19T12:22:42.307Z,24.83
2022-08-19T12:25:52.528Z,25.26
2022-08-19T12:28:54.745Z,25.60
2022-08-19T12:32:02.311Z,25.56
2022-08-19T12:35:08.176Z,25.34
2022-08-19T12:38:10.023Z,25.62
2022-08-19T12:41:14.878Z,25.56
2022-08-19T12:44:17.059Z,26.05
2022-08-19T12:47:22.048Z,26.10
2022-08-19T12:50:23.794Z,25.91
2022-08-19T12:53:26.164Z,26.23
2022-08-19T12:56:28.422Z,25.54
2022-08-19T12:59:29.993Z,25.76
2022-08-19T13:02:33.140Z,25.55
2022-08-19T13:05:40.744Z,25.52
2022-08-19T13:08:42.771Z,25.99
2022-08-19T13:11:48.084Z,26.06
2022-08-19T13:14:51.010Z,25.87
2022-08-19T13:17:54.738Z,26.22
2022-08-19T13:20:57.426Z,26.15
2022-08-19T13:23:59.502Z,26.26
2022-08-19T13:27:02.037Z,25.59
2022-08-19T13:30:23.595Z,24.98
2022-08-19T13:33:26.672Z,24.98
2022-08-19T13:36:28.394Z,25.13
2022-08-19T13:39:31.549Z,25.44
2022-08-19T13:42:33.368Z,25.18
2022-08-19T13:45:35.441Z,25.24
2022-08-19T13:48:37.139Z,25.47
2022-08-19T13:51:40.724Z,25.17
2022-08-19T13:54:44.797Z,24.75
2022-08-19T13:57:46.857Z,24.56
2022-08-19T14:00:49.272Z,24.57
2022-08-19T14:03:51.339Z,24.08
2022-08-19T14:06:52.999Z,24.05
2022-08-19T14:09:54.659Z,24.00
2022-08-19T14:12:59.304Z,23.86
2022-08-19T14:16:01.108Z,23.17
2022-08-19T14:19:02.831Z,22.42
2022-08-19T14:22:05.532Z,22.20
2022-08-19T14:25:13.098Z,21.90
2022-08-19T14:28:14.813Z,21.99
2022-08-19T14:31:20.297Z,22.05
2022-08-19T14:34:23.229Z,21.96
2022-08-19T14:37:25.129Z,21.81
2022-08-19T14:40:28.887Z,21.86
2022-08-19T14:43:30.664Z,21.83
2022-08-19T14:46:32.348Z,21.97
2022-08-19T14:53:15.003Z,21.95
2022-08-19T14:56:27.256Z,22.05
2022-08-19T14:59:35.203Z,21.92
2022-08-19T15:02:45.894Z,22.04
2022-08-19T15:05:50.386Z,22.05
2022-08-19T15:08:52.931Z,22.26
2022-08-19T15:11:54.758Z,22.38
2022-08-19T15:14:56.987Z,22.68
2022-08-19T15:18:03.376Z,22.98
2022-08-19T15:21:05.496Z,22.70
2022-08-19T15:24:07.539Z,22.57
2022-08-19T15:27:32.727Z,22.56
2022-08-19T15:30:34.694Z,22.46
2022-08-19T15:33:38.048Z,22.42
2022-08-19T15:36:40.277Z,22.40
2022-08-19T15:39:42.658Z,22.38
2022-08-19T15:42:53.459Z,22.24
2022-08-19T15:45:55.252Z,22.35
2022-08-19T15:49:00.314Z,22.33
2022-08-19T15:52:02.561Z,22.94
2022-08-19T15:55:09.258Z,23.30
2022-08-19T15:58:36.511Z,22.99
2022-08-19T16:01:57.045Z,23.43
2022-08-19T16:05:17.837Z,24.55
2022-08-19T16:08:20.446Z,25.26
2022-08-19T16:11:29.298Z,24.91
2022-08-19T16:14:34.927Z,24.98
2022-08-19T16:17:37.297Z,25.47
2022-08-19T16:20:39.213Z,25.18
2022-08-19T16:23:41.921Z,25.29
2022-08-19T16:26:45.381Z,24.98
2022-08-19T16:29:47.346Z,25.14
2022-08-19T16:32:49.561Z,25.11
2022-08-19T16:35:57.805Z,24.93
2022-08-19T16:39:18.421Z,24.75
2022-08-19T16:42:21.107Z,24.72
2022-08-19T16:45:23.221Z,24.59
2022-08-19T16:48:29.922Z,24.46
2022-08-19T16:51:33.870Z,24.30
2022-08-19T16:54:37.761Z,24.15
2022-08-19T16:57:39.951Z,24.12
2022-08-19T17:00:41.742Z,23.99
2022-08-19T17:03:43.632Z,23.85
2022-08-19T17:06:45.618Z,23.87
2022-08-19T17:09:47.275Z,23.56
2022-08-19T17:12:54.879Z,23.71
2022-08-19T17:15:56.911Z,23.81
2022-08-19T17:19:01.884Z,23.83
2022-08-19T17:22:03.638Z,23.72
2022-08-19T17:25:05.710Z,23.74
2022-08-19T17:28:16.629Z,23.78
2022-08-19T17:31:21.318Z,23.69
2022-08-19T17:34:23.043Z,23.60
2022-08-19T17:37:24.814Z,23.40
2022-08-19T17:40:29.149Z,23.46
2022-08-19T17:43:36.533Z,23.37
2022-08-19T17:46:41.174Z,23.31
2022-08-19T17:49:43.030Z,23.18
2022-08-19T17:52:44.801Z,22.96
2022-08-19T17:55:48.084Z,22.76
2022-08-19T17:59:00.084Z,22.86
2022-08-19T18:02:05.310Z,22.78
2022-08-19T18:05:07.179Z,22.85
2022-08-19T18:08:10.627Z,22.79
2022-08-19T18:11:12.662Z,22.69
2022-08-19T18:14:15.287Z,22.69
2022-08-19T18:17:19.321Z,22.54
2022-08-19T18:20:21.462Z,22.55
2022-08-19T18:23:44.675Z,22.55
2022-08-19T18:26:48.138Z,22.24
2022-08-19T18:29:50.056Z,22.13
2022-08-19T18:32:53.386Z,22.19
2022-08-19T18:35:55.094Z,22.06
2022-08-19T18:39:15.362Z,22.04
2022-08-19T18:42:37.652Z,21.97
2022-08-19T18:46:00.172Z,21.87
2022-08-19T18:49:05.405Z,21.70
2022-08-19T18:52:07.559Z,21.66
2022-08-19T18:55:09.552Z,21.62
2022-08-19T18:58:11.351Z,21.57
2022-08-19T19:01:19.222Z,21.61
2022-08-19T19:04:24.466Z,21.56
2022-08-19T19:07:27.391Z,21.50
2022-08-19T19:10:29.092Z,21.42
2022-08-19T19:13:33.118Z,21.46
2022-08-19T19:16:34.727Z,21.44
2022-08-19T19:19:36.583Z,21.39
2022-08-19T19:22:38.552Z,21.18
2022-08-19T19:25:49.904Z,21.08
2022-08-19T19:28:52.917Z,21.03
2022-08-19T19:31:56.131Z,20.99
2022-08-19T19:34:57.954Z,20.95
2022-08-19T19:37:59.833Z,20.84
2022-08-19T19:41:02.239Z,20.73
2022-08-19T19:44:30.597Z,20.90
2022-08-19T19:47:28.273Z,20.82
2022-08-19T19:50:30.256Z,20.70
2022-08-19T19:53:34.347Z,20.65
2022-08-19T19:56:36.330Z,20.35
2022-08-19T19:59:38.152Z,20.34
2022-08-19T20:02:50.501Z,20.24
2022-08-19T20:05:52.685Z,20.28
2022-08-19T20:09:28.535Z,20.42
2022-08-19T20:12:41.066Z,20.40
2022-08-19T20:15:46.813Z,20.41
2022-08-19T20:18:48.931Z,20.20
2022-08-19T20:21:51.537Z,20.11
2022-08-19T20:24:53.884Z,20.12
2022-08-19T20:32:16.625Z,20.00
2022-08-19T20:35:21.448Z,19.81
2022-08-19T20:38:23.538Z,19.81
2022-08-19T20:41:25.640Z,19.75
2022-08-19T20:44:27.427Z,19.51
2022-08-19T20:47:32.899Z,19.41
2022-08-19T20:50:36.104Z,19.48
2022-08-19T20:53:38.789Z,19.67
2022-08-19T20:56:40.666Z,19.55
2022-08-19T20:59:42.431Z,19.47
2022-08-19T21:02:44.268Z,19.41
2022-08-19T21:05:47.559Z,19.26
2022-08-19T21:08:49.491Z,19.39
2022-08-19T21:11:54.032Z,19.63
2022-08-19T21:14:55.788Z,19.54
2022-08-19T21:17:58.410Z,19.21
2022-08-19T21:21:00.276Z,18.94
2022-08-19T21:24:02.215Z,19.11
2022-08-19T21:27:04.073Z,19.30
2022-08-19T21:30:07.440Z,19.17
2022-08-19T21:33:10.681Z,19.43
2022-08-19T21:36:12.613Z,19.21
2022-08-19T21:39:14.646Z,19.03
2022-08-19T21:42:16.774Z,19.15
2022-08-19T21:45:19.569Z,19.31
2022-08-19T21:48:21.404Z,19.16
2022-08-19T21:51:23.397Z,18.99
2022-08-19T21:54:25.427Z,19.04
2022-08-19T21:57:27.352Z,18.87
2022-08-19T22:00:32.201Z,18.89
2022-08-19T22:03:35.754Z,19.19
2022-08-19T22:06:37.630Z,19.06
2022-08-19T22:09:40.962Z,18.97
2022-08-19T22:12:47.338Z,18.78
2022-08-19T22:15:55.151Z,18.74
2022-08-19T22:18:57.497Z,18.59
2022-08-19T22:21:59.259Z,18.65
2022-08-19T22:25:09.750Z,18.67
2022-08-19T22:28:13.986Z,18.69
2022-08-19T22:31:16.179Z,18.62
2022-08-19T22:34:18.254Z,18.84
2022-08-19T22:37:20.516Z,19.00
2022-08-19T22:40:22.287Z,18.70
2022-08-19T22:43:28.640Z,18.63
2022-08-19T22:46:33.798Z,18.55
2022-08-19T22:49:35.652Z,18.55
2022-08-19T22:52:37.587Z,18.59
2022-08-19T22:55:39.380Z,18.63
2022-08-19T22:58:42.374Z,18.68
2022-08-19T23:01:46.337Z,18.68
2022-08-19T23:04:48.080Z,18.69
2022-08-19T23:07:52.807Z,18.89
2022-08-19T23:10:54.766Z,18.86
2022-08-19T23:13:56.543Z,18.71
2022-08-19T23:16:59.164Z,18.72
2022-08-19T23:20:01.664Z,18.67
2022-08-19T23:23:06.726Z,18.65
2022-08-19T23:26:11.704Z,18.65
2022-08-19T23:29:32.766Z,18.55
2022-08-19T23:32:35.689Z,18.81
2022-08-19T23:35:38.384Z,18.80
2022-08-19T23:38:43.428Z,18.57
2022-08-19T23:41:45.277Z,18.52
2022-08-19T23:44:52.359Z,18.35
2022-08-19T23:47:55.492Z,18.31
2022-08-19T23:50:58.669Z,18.40
2022-08-19T23:54:00.492Z,18.24
2022-08-19T23:57:02.216Z,18.19
